Time;durP1;ratioP1;P1;durP2;ratioP2;P2;SDS_P1;SDS_P2;PMS_P1;PMS_P2;Temp;Humidity;BMP_temperature;BMP_pressure;BME280_temperature;BME280_humidity;BME280_pressure;Samples;Min_cycle;Max_cycle;Signal;HPM_P1;HPM_P2
2022/07/29 00:00:05;;;;;;;6.30;3.40;;;;;;;17.59;58.92;100914.35;106077;1274;22534;-80
2022/07/29 00:02:32;;;;;;;8.20;3.70;;;;;;;17.53;59.11;100916.46;106247;1277;22521;-80
2022/07/29 00:04:59;;;;;;;8.30;3.20;;;;;;;17.48;59.28;100909.33;106084;1277;23254;-79
2022/07/29 00:07:26;;;;;;;5.00;3.20;;;;;;;17.49;59.40;100912.68;105683;1278;24398;-80
2022/07/29 00:09:53;;;;;;;9.10;3.70;;;;;;;17.47;59.48;100914.52;105822;1278;23076;-75
2022/07/29 00:12:22;;;;;;;9.00;3.60;;;;;;;17.48;59.41;100918.23;105963;1277;24256;-79
2022/07/29 00:14:56;;;;;;;6.50;3.20;;;;;;;17.44;59.51;100920.13;105794;1278;25368;-80
2022/07/29 00:17:24;;;;;;;10.90;3.80;;;;;;;17.42;59.68;100924.27;105656;1281;22662;-79
2022/07/29 00:19:51;;;;;;;9.30;3.60;;;;;;;17.37;59.84;100923.37;105824;1277;25500;-78
2022/07/29 00:22:19;;;;;;;4.60;3.30;;;;;;;17.36;60.07;100928.02;106010;1274;23934;-76
2022/07/29 00:24:49;;;;;;;7.70;3.60;;;;;;;17.33;60.19;100926.31;106023;1274;22531;-80
2022/07/29 00:27:17;;;;;;;7.40;3.40;;;;;;;17.32;60.16;100923.31;106121;1274;22516;-75
2022/07/29 00:29:44;;;;;;;5.10;3.20;;;;;;;17.31;60.24;100924.77;105972;1276;22539;-77
2022/07/29 00:32:12;;;;;;;11.00;3.50;;;;;;;17.29;60.32;100927.48;106207;1274;24316;-79
2022/07/29 00:37:25;;;;;;;7.30;3.20;;;;;;;17.24;60.52;100927.09;105951;1274;22538;-79
2022/07/29 00:39:52;;;;;;;5.90;3.00;;;;;;;17.21;60.65;100921.14;105969;1274;22560;-78
2022/07/29 00:42:19;;;;;;;4.90;3.00;;;;;;;17.22;60.69;100927.69;105943;1276;23962;-79
2022/07/29 00:44:46;;;;;;;6.60;3.00;;;;;;;17.20;60.70;100920.61;105998;1275;22596;-77
2022/07/29 00:47:13;;;;;;;6.40;3.40;;;;;;;17.17;60.69;100920.34;105927;1274;23216;-76
2022/07/29 00:49:41;;;;;;;6.00;2.90;;;;;;;17.15;60.94;100911.02;105749;1274;22545;-81
2022/07/29 00:52:10;;;;;;;7.00;3.10;;;;;;;17.16;60.95;100911.48;106108;1274;25466;-81
2022/07/29 00:54:39;;;;;;;7.60;2.70;;;;;;;17.15;61.23;100912.57;106076;1275;25292;-80
2022/07/29 00:57:11;;;;;;;7.10;2.60;;;;;;;17.12;61.22;100913.74;105654;1281;25364;-79
2022/07/29 00:59:38;;;;;;;6.20;2.60;;;;;;;17.13;61.34;100916.94;105588;1284;25411;-80
2022/07/29 01:02:05;;;;;;;6.60;2.60;;;;;;;17.13;61.46;100912.65;105487;1281;25402;-80
2022/07/29 01:04:33;;;;;;;5.50;3.10;;;;;;;17.13;61.44;100912.65;105426;1281;24267;-77
2022/07/29 01:07:03;;;;;;;7.80;2.40;;;;;;;17.14;61.49;100918.84;105634;1281;24271;-78
2022/07/29 01:09:36;;;;;;;3.50;2.90;;;;;;;17.15;61.51;100918.09;105570;1281;24232;-77
2022/07/29 01:12:23;;;;;;;4.40;2.50;;;;;;;17.14;61.49;100918.29;105410;1281;25347;-80
2022/07/29 01:14:52;;;;;;;7.80;2.40;;;;;;;17.14;61.59;100916.55;105648;1276;22589;-79
2022/07/29 01:17:25;;;;;;;6.20;2.80;;;;;;;17.13;61.61;100919.75;106257;1274;24237;-78
2022/07/29 01:20:04;;;;;;;5.00;2.80;;;;;;;17.12;61.70;100912.67;106043;1274;25664;-80
2022/07/29 01:22:33;;;;;;;6.00;2.50;;;;;;;17.09;61.62;100917.36;106045;1274;24240;-79
2022/07/29 01:25:38;;;;;;;4.50;2.90;;;;;;;17.03;61.50;100923.74;106230;1274;24204;-77
2022/07/29 01:28:22;;;;;;;7.40;2.60;;;;;;;16.96;61.80;100921.95;105972;1274;22534;-78
2022/07/29 01:30:54;;;;;;;3.20;2.60;;;;;;;16.92;62.10;100921.70;106958;1274;25367;-79
2022/07/29 01:36:16;;;;;;;6.40;3.00;;;;;;;16.93;62.15;100921.51;106045;1273;25310;-77
2022/07/29 01:38:49;;;;;;;6.60;2.80;;;;;;;16.89;62.14;100918.60;106072;1274;22576;-79
2022/07/29 01:41:19;;;;;;;2.90;2.50;;;;;;;16.89;62.37;100920.75;106300;1273;22714;-79
2022/07/29 01:43:54;;;;;;;6.30;2.90;;;;;;;16.88;62.30;100922.20;106230;1273;22553;-80
2022/07/29 01:46:29;;;;;;;8.20;3.00;;;;;;;16.86;62.43;100924.36;105995;1273;25255;-74
2022/07/29 01:49:08;;;;;;;4.80;2.60;;;;;;;16.83;62.56;100926.39;105784;1274;25258;-82
2022/07/29 01:51:51;;;;;;;3.10;2.30;;;;;;;16.83;62.46;100926.40;105896;1274;22556;-82
2022/07/29 01:54:37;;;;;;;2.40;2.00;;;;;;;16.85;62.60;100925.10;106003;1273;22714;-78
2022/07/29 01:57:08;;;;;;;4.50;2.80;;;;;;;16.80;62.74;100926.46;106202;1273;22894;-75
2022/07/29 01:59:37;;;;;;;4.50;2.70;;;;;;;16.76;62.55;100920.73;105993;1274;22645;-73
2022/07/29 02:02:08;;;;;;;4.50;2.20;;;;;;;16.69;62.81;100918.23;105962;1276;22537;-76
2022/07/29 02:04:37;;;;;;;9.00;3.00;;;;;;;16.67;63.08;100926.45;106080;1273;24007;-78
2022/07/29 02:07:07;;;;;;;7.90;2.70;;;;;;;16.62;63.17;100926.77;105986;1273;22606;-76
2022/07/29 02:09:37;;;;;;;6.80;2.70;;;;;;;16.57;63.37;100927.61;106182;1273;22551;-79
2022/07/29 02:12:07;;;;;;;5.30;2.40;;;;;;;16.53;63.41;100929.66;106002;1274;23861;-74
2022/07/29 02:14:40;;;;;;;4.50;2.30;;;;;;;16.51;63.73;100929.19;106038;1273;23935;-77
2022/07/29 02:17:08;;;;;;;5.50;2.40;;;;;;;16.53;63.90;100925.76;106115;1273;24240;-77
2022/07/29 02:19:38;;;;;;;3.70;2.40;;;;;;;16.51;63.92;100919.05;107072;1274;22578;-76
2022/07/29 02:22:07;;;;;;;6.00;2.50;;;;;;;16.50;63.79;100923.52;107943;1273;22823;-74
2022/07/29 02:24:37;;;;;;;8.00;2.70;;;;;;;16.50;64.06;100920.66;106129;1273;25268;-78
2022/07/29 02:27:04;;;;;;;6.50;2.70;;;;;;;16.45;64.13;100916.54;108060;1273;22831;-71
2022/07/29 02:29:32;;;;;;;4.20;2.00;;;;;;;16.45;64.18;100922.39;108317;1273;22598;-74
2022/07/29 02:32:03;;;;;;;5.30;2.00;;;;;;;16.43;64.33;100920.15;106048;1273;22597;-77
2022/07/29 02:34:31;;;;;;;4.10;2.10;;;;;;;16.45;64.34;100920.97;106410;1273;24371;-74
2022/07/29 02:36:59;;;;;;;6.30;2.60;;;;;;;16.49;64.36;100922.31;105940;1273;22524;-76
2022/07/29 02:39:29;;;;;;;6.70;2.40;;;;;;;16.51;64.38;100925.09;105780;1273;22543;-77
2022/07/29 02:42:03;;;;;;;4.80;2.10;;;;;;;16.53;64.46;100917.77;105926;1273;22867;-77
2022/07/29 02:44:32;;;;;;;7.20;2.30;;;;;;;16.55;64.54;100919.10;105995;1273;22614;-77
2022/07/29 02:47:09;;;;;;;5.90;2.30;;;;;;;16.53;64.62;100917.94;106842;1273;22532;-74
2022/07/29 02:49:38;;;;;;;;;;;;;;;16.52;64.76;100919.02;107997;1272;22545;-75
2022/07/29 02:52:15;;;;;;;3.20;2.40;;;;;;;16.49;64.58;100919.28;106225;1273;22648;-74
2022/07/29 02:54:53;;;;;;;4.90;2.40;;;;;;;16.44;64.63;100926.53;105887;1273;22619;-78
2022/07/29 02:57:26;;;;;;;5.70;2.50;;;;;;;16.43;64.73;100925.13;105887;1273;24305;-76
2022/07/29 02:59:58;;;;;;;5.10;2.40;;;;;;;16.39;64.82;100924.67;105857;1273;22626;-76
2022/07/29 03:02:27;;;;;;;3.40;2.30;;;;;;;16.37;64.95;100927.41;105839;1273;22591;-76
2022/07/29 03:04:59;;;;;;;4.50;2.10;;;;;;;16.33;65.10;100923.94;105845;1273;25252;-78
2022/07/29 03:07:27;;;;;;;6.40;2.10;;;;;;;16.31;64.97;100926.45;105842;1273;22528;-76
2022/07/29 03:09:55;;;;;;;5.00;2.40;;;;;;;16.31;65.38;100927.70;106125;1273;22846;-76
2022/07/29 03:12:23;;;;;;;2.90;2.10;;;;;;;16.36;65.35;100928.31;105809;1273;22714;-75
2022/07/29 03:14:51;;;;;;;5.10;2.60;;;;;;;16.37;65.29;100925.80;105858;1273;25305;-77
2022/07/29 03:17:18;;;;;;;3.70;2.40;;;;;;;16.35;65.41;100926.55;105832;1273;22544;-76
2022/07/29 03:19:46;;;;;;;2.70;2.10;;;;;;;16.32;65.41;100927.70;105864;1273;22543;-77
2022/07/29 03:22:13;;;;;;;5.60;3.00;;;;;;;16.29;65.43;100929.02;105806;1273;22554;-75
2022/07/29 03:24:44;;;;;;;5.00;2.80;;;;;;;16.27;65.48;100932.78;105921;1273;25247;-77
2022/07/29 03:27:13;;;;;;;4.40;3.00;;;;;;;16.25;65.75;100931.77;105889;1273;22950;-74
2022/07/29 03:29:39;;;;;;;4.70;3.00;;;;;;;16.23;65.85;100932.90;105981;1273;23914;-76
2022/07/29 03:32:15;;;;;;;3.50;2.70;;;;;;;16.22;65.99;100933.27;105905;1273;22453;-74
2022/07/29 03:34:49;;;;;;;5.30;3.40;;;;;;;16.24;66.13;100935.90;105954;1272;22652;-76
2022/07/29 03:37:16;;;;;;;4.50;3.20;;;;;;;16.21;66.02;100935.05;105863;1273;22553;-79
2022/07/29 03:39:45;;;;;;;5.90;3.40;;;;;;;16.22;66.29;100932.20;105886;1273;22561;-77
2022/07/29 03:42:16;;;;;;;5.40;3.30;;;;;;;16.26;66.38;100928.02;105941;1273;23209;-77
2022/07/29 03:44:47;;;;;;;4.10;2.80;;;;;;;16.26;66.27;100928.19;105865;1273;24384;-76
2022/07/29 03:47:17;;;;;;;5.80;2.30;;;;;;;16.22;66.55;100925.80;106049;1273;22673;-77
2022/07/29 03:49:50;;;;;;;6.70;2.70;;;;;;;16.21;66.63;100919.23;105963;1273;22560;-74
2022/07/29 03:52:17;;;;;;;3.50;2.10;;;;;;;16.17;66.82;100920.58;105871;1273;22557;-78
2022/07/29 03:54:45;;;;;;;5.30;1.80;;;;;;;16.22;66.84;100926.52;105932;1273;24337;-76
2022/07/29 03:57:14;;;;;;;3.70;2.10;;;;;;;16.21;66.90;100923.51;106166;1273;22554;-75
2022/07/29 03:59:42;;;;;;;4.80;2.20;;;;;;;16.28;67.11;100929.75;105997;1273;24347;-76
2022/07/29 04:02:12;;;;;;;6.40;2.10;;;;;;;16.34;67.16;100932.81;106084;1273;24441;-77
2022/07/29 04:04:42;;;;;;;4.50;2.10;;;;;;;16.37;67.17;100933.25;105793;1273;22553;-76
2022/07/29 04:07:12;;;;;;;4.30;2.10;;;;;;;16.40;67.12;100932.29;105987;1273;24327;-77
2022/07/29 04:09:39;;;;;;;2.80;1.90;;;;;;;16.42;67.11;100933.32;106072;1273;25444;-77
2022/07/29 04:12:07;;;;;;;2.70;1.70;;;;;;;16.42;67.36;100931.19;105859;1273;22557;-81
2022/07/29 04:14:34;;;;;;;2.00;1.60;;;;;;;16.41;67.33;100925.52;106130;1273;22557;-77
2022/07/29 04:17:03;;;;;;;2.90;1.40;;;;;;;16.47;67.37;100927.15;105824;1273;24343;-73
2022/07/29 04:19:30;;;;;;;2.40;1.90;;;;;;;16.49;67.30;100931.90;106084;1273;22551;-77
2022/07/29 04:21:58;;;;;;;1.70;1.50;;;;;;;16.50;67.46;100930.27;105901;1273;22535;-79
2022/07/29 04:24:25;;;;;;;3.00;1.80;;;;;;;16.51;67.47;100933.28;105852;1273;22547;-78
2022/07/29 04:26:52;;;;;;;2.30;1.60;;;;;;;16.54;67.51;100930.37;106008;1273;22478;-76
2022/07/29 04:29:19;;;;;;;4.00;1.60;;;;;;;16.58;67.58;100932.38;105903;1272;23910;-76
2022/07/29 04:31:46;;;;;;;3.50;1.80;;;;;;;16.57;67.64;100928.30;105913;1273;25635;-76
2022/07/29 04:34:13;;;;;;;1.80;1.50;;;;;;;16.59;67.74;100928.80;105865;1273;22549;-74
2022/07/29 04:36:40;;;;;;;4.70;1.70;;;;;;;16.63;67.77;100937.08;105899;1273;25241;-75
2022/07/29 04:39:07;;;;;;;3.30;1.90;;;;;;;16.63;67.77;100935.63;105934;1273;22699;-77
2022/07/29 04:41:34;;;;;;;2.10;1.60;;;;;;;16.64;67.74;100935.62;105883;1273;22622;-77
2022/07/29 04:44:04;;;;;;;4.80;1.70;;;;;;;16.65;67.95;100933.27;105963;1273;25504;-76
2022/07/29 04:46:34;;;;;;;2.30;1.20;;;;;;;16.69;67.96;100933.88;105936;1272;24600;-76
2022/07/29 04:49:02;;;;;;;5.80;1.80;;;;;;;16.71;68.04;100933.10;106076;1273;24385;-77
2022/07/29 04:51:30;;;;;;;2.60;1.70;;;;;;;16.73;67.93;100933.44;106341;1273;25431;-79
2022/07/29 04:53:57;;;;;;;2.40;1.60;;;;;;;16.76;67.94;100935.84;106190;1273;22581;-79
2022/07/29 04:56:24;;;;;;;1.70;1.40;;;;;;;16.79;67.93;100937.18;105923;1273;25954;-76
2022/07/29 04:58:51;;;;;;;3.10;1.50;;;;;;;16.82;67.91;100943.32;105974;1273;24176;-75
2022/07/29 05:01:19;;;;;;;1.90;1.60;;;;;;;16.84;67.97;100940.27;105875;1273;22660;-78
2022/07/29 05:03:46;;;;;;;2.20;1.30;;;;;;;16.91;67.94;100943.10;106043;1273;25403;-76
2022/07/29 05:06:13;;;;;;;5.50;1.80;;;;;;;16.93;67.89;100944.45;106152;1273;22615;-77
2022/07/29 05:08:40;;;;;;;3.40;1.60;;;;;;;16.95;67.75;100939.79;106020;1273;26173;-74
2022/07/29 05:11:08;;;;;;;4.30;1.50;;;;;;;16.99;67.78;100941.83;105973;1274;22867;-76
2022/07/29 05:13:39;;;;;;;2.50;1.30;;;;;;;17.02;67.58;100941.55;105940;1273;22699;-76
2022/07/29 05:16:13;;;;;;;3.00;1.40;;;;;;;17.06;67.69;100947.85;106044;1272;22539;-78
2022/07/29 05:18:40;;;;;;;4.90;1.10;;;;;;;17.09;67.44;100945.67;105958;1273;22535;-77
2022/07/29 05:21:07;;;;;;;2.60;1.30;;;;;;;17.11;67.62;100949.38;106051;1273;22600;-75
2022/07/29 05:23:34;;;;;;;2.70;2.00;;;;;;;17.14;67.62;100948.02;105989;1273;23024;-74
2022/07/29 05:26:01;;;;;;;1.80;1.50;;;;;;;17.20;67.45;100948.20;106014;1273;25246;-77
2022/07/29 05:28:32;;;;;;;2.90;1.60;;;;;;;17.27;67.51;100945.73;107295;1273;22539;-75
2022/07/29 05:30:59;;;;;;;2.00;1.70;;;;;;;17.32;67.37;100949.48;107162;1273;25873;-77
2022/07/29 05:33:26;;;;;;;4.40;2.50;;;;;;;17.36;67.31;100945.48;106568;1273;22661;-74
2022/07/29 05:36:06;;;;;;;2.10;1.50;;;;;;;17.42;67.22;100946.17;108677;1273;22678;-76
2022/07/29 05:38:35;;;;;;;3.00;1.60;;;;;;;17.50;67.04;100949.15;107683;1273;22553;-80
2022/07/29 05:41:03;;;;;;;3.60;1.70;;;;;;;17.55;66.89;100951.66;106159;1273;22544;-77
2022/07/29 05:43:30;;;;;;;3.20;1.10;;;;;;;17.59;66.85;100946.77;106041;1273;23084;-79
2022/07/29 05:45:57;;;;;;;3.00;1.20;;;;;;;17.62;66.78;100947.01;105999;1272;25600;-79
2022/07/29 05:48:25;;;;;;;12.50;8.10;;;;;;;17.63;66.38;100946.28;106101;1273;23175;-76
2022/07/29 05:50:52;;;;;;;3.80;1.30;;;;;;;17.65;66.36;100945.16;105927;1273;22631;-77
2022/07/29 05:53:19;;;;;;;3.80;1.50;;;;;;;17.67;66.22;100939.38;105876;1273;24240;-78
2022/07/29 05:55:48;;;;;;;8.40;1.60;;;;;;;17.71;65.96;100931.09;105921;1273;22654;-80
2022/07/29 05:58:14;;;;;;;6.90;1.40;;;;;;;17.73;65.96;100936.91;105830;1273;22872;-76
2022/07/29 06:00:42;;;;;;;3.30;1.30;;;;;;;17.74;65.69;100936.52;106088;1273;22618;-79
2022/07/29 06:03:09;;;;;;;2.00;1.50;;;;;;;17.76;65.38;100935.39;105863;1273;22531;-80
2022/07/29 06:05:36;;;;;;;3.90;1.30;;;;;;;17.76;65.46;100939.67;105906;1273;22545;-78
2022/07/29 06:08:06;;;;;;;2.60;0.80;;;;;;;17.79;65.16;100938.52;105965;1274;23176;-74
2022/07/29 06:10:37;;;;;;;2.30;1.20;;;;;;;17.83;65.27;100937.30;106001;1273;22646;-74
2022/07/29 06:13:04;;;;;;;2.60;1.30;;;;;;;17.89;65.01;100933.02;106057;1273;22718;-77
2022/07/29 06:15:31;;;;;;;5.40;1.70;;;;;;;17.95;64.74;100936.23;106133;1273;22859;-75
2022/07/29 06:17:58;;;;;;;2.70;1.30;;;;;;;17.97;64.63;100935.09;105908;1273;22556;-82
2022/07/29 06:20:29;;;;;;;2.70;1.10;;;;;;;17.99;64.66;100930.23;105815;1273;22615;-77
2022/07/29 06:22:57;;;;;;;5.50;1.60;;;;;;;18.03;64.59;100933.66;106020;1273;22602;-77
2022/07/29 06:25:24;;;;;;;2.00;1.20;;;;;;;18.04;64.38;100930.23;105829;1273;22729;-75
2022/07/29 06:27:51;;;;;;;3.60;1.30;;;;;;;18.07;64.18;100931.23;105891;1273;22709;-73
2022/07/29 06:30:18;;;;;;;4.80;1.80;;;;;;;18.10;64.08;100930.08;105993;1273;25379;-81
2022/07/29 06:32:46;;;;;;;1.30;1.10;;;;;;;18.14;64.16;100929.09;105921;1273;24633;-78
2022/07/29 06:35:12;;;;;;;3.10;1.20;;;;;;;18.18;64.25;100931.09;105904;1275;22985;-74
2022/07/29 06:37:59;;;;;;;2.30;1.30;;;;;;;18.22;63.99;100924.91;105988;1274;25299;-78
2022/07/29 06:43:13;;;;;;;6.60;1.40;;;;;;;18.30;64.00;100930.67;105587;1278;25339;-76
2022/07/29 06:45:40;;;;;;;1.90;1.10;;;;;;;18.34;63.67;100934.30;105498;1278;22615;-78
2022/07/29 06:48:09;;;;;;;2.70;1.10;;;;;;;18.37;63.42;100936.73;105687;1279;25708;-77
2022/07/29 06:50:36;;;;;;;3.50;1.50;;;;;;;18.40;63.29;100933.76;105580;1278;24944;-75
2022/07/29 06:53:03;;;;;;;3.40;1.20;;;;;;;18.45;63.19;100936.80;105502;1278;24246;-77
2022/07/29 06:55:30;;;;;;;4.70;1.30;;;;;;;18.49;63.05;100933.63;105710;1279;25581;-78
2022/07/29 06:57:57;;;;;;;5.80;1.80;;;;;;;18.54;63.05;100931.31;105574;1278;24239;-77
2022/07/29 07:00:25;;;;;;;3.70;1.50;;;;;;;18.60;62.88;100933.10;105102;1284;24198;-77
2022/07/29 07:02:52;;;;;;;2.40;1.30;;;;;;;18.61;62.49;100929.14;105080;1281;22719;-77
2022/07/29 07:05:19;;;;;;;2.20;1.40;;;;;;;18.67;62.50;100934.12;105392;1281;25321;-77
2022/07/29 07:07:46;;;;;;;3.60;1.20;;;;;;;18.72;62.48;100933.40;105459;1281;22534;-78
2022/07/29 07:10:12;;;;;;;2.50;1.10;;;;;;;18.77;62.30;100931.27;105399;1281;24279;-78
2022/07/29 07:12:39;;;;;;;6.10;1.40;;;;;;;18.81;62.42;100932.01;105348;1281;25720;-78
2022/07/29 07:15:06;;;;;;;4.70;1.20;;;;;;;18.87;62.17;100928.81;105393;1281;26413;-79
2022/07/29 07:17:33;;;;;;;3.90;1.20;;;;;;;18.92;61.94;100931.80;105340;1281;23753;-76
2022/07/29 07:20:00;;;;;;;2.90;1.10;;;;;;;18.98;61.73;100931.43;105798;1274;22651;-75
2022/07/29 07:22:28;;;;;;;5.00;1.20;;;;;;;19.07;61.70;100930.97;105790;1275;22559;-77
2022/07/29 07:24:55;;;;;;;5.40;1.30;;;;;;;19.14;61.69;100930.19;105776;1274;22764;-77
2022/07/29 07:27:22;;;;;;;7.60;1.60;;;;;;;19.20;61.49;100925.49;105810;1276;24584;-77
2022/07/29 07:29:49;;;;;;;3.40;1.40;;;;;;;19.26;61.26;100922.06;105765;1275;25056;-76
2022/07/29 07:32:16;;;;;;;5.10;1.50;;;;;;;19.31;60.98;100927.06;105828;1274;22531;-77
2022/07/29 07:34:43;;;;;;;2.30;1.00;;;;;;;19.39;60.98;100924.46;105836;1273;25311;-75
2022/07/29 07:37:11;;;;;;;7.30;1.70;;;;;;;19.47;61.08;100927.35;105819;1273;22862;-77
2022/07/29 07:39:38;;;;;;;4.60;1.50;;;;;;;19.57;60.97;100929.30;105880;1273;26520;-76
2022/07/29 07:42:05;;;;;;;3.40;1.30;;;;;;;19.66;60.39;100926.82;105932;1273;22557;-79
2022/07/29 07:44:32;;;;;;;5.60;1.30;;;;;;;19.74;60.14;100927.25;105815;1273;23217;-76
2022/07/29 07:47:12;;;;;;;3.70;1.50;;;;;;;19.83;60.11;100926.20;105864;1273;25073;-79
2022/07/29 07:49:41;;;;;;;2.70;1.20;;;;;;;19.89;59.72;100925.60;105936;1273;25298;-77
2022/07/29 07:52:11;;;;;;;2.80;1.20;;;;;;;19.96;59.63;100925.31;105833;1276;25375;-77
2022/07/29 07:54:38;;;;;;;23.10;2.10;;;;;;;20.05;59.63;100926.95;105986;1273;25235;-77
2022/07/29 07:57:05;;;;;;;1.50;0.90;;;;;;;20.15;59.85;100928.50;105901;1274;25244;-79
2022/07/29 07:59:32;;;;;;;4.70;1.50;;;;;;;20.27;59.69;100931.08;106040;1273;24764;-77
2022/07/29 08:01:59;;;;;;;2.70;1.20;;;;;;;20.39;59.62;100928.06;106030;1273;22677;-75
2022/07/29 08:04:27;;;;;;;3.40;1.10;;;;;;;20.51;59.02;100929.70;106053;1273;24032;-78
2022/07/29 08:06:56;;;;;;;2.70;1.40;;;;;;;20.63;58.58;100933.67;105962;1273;26614;-78
2022/07/29 08:09:26;;;;;;;3.40;1.30;;;;;;;20.75;58.32;100933.71;106268;1273;25461;-78
2022/07/29 08:11:57;;;;;;;3.50;1.40;;;;;;;20.89;58.14;100930.63;106603;1273;23304;-76
2022/07/29 08:14:25;;;;;;;4.70;1.20;;;;;;;21.05;58.15;100935.14;107321;1274;25364;-76
2022/07/29 08:16:52;;;;;;;4.30;1.10;;;;;;;21.17;57.80;100924.23;107618;1274;22775;-76
2022/07/29 08:19:20;;;;;;;2.70;1.10;;;;;;;21.30;57.00;100918.98;107596;1273;23933;-76
2022/07/29 08:21:47;;;;;;;2.10;1.00;;;;;;;21.41;56.86;100919.20;106899;1273;22552;-77
2022/07/29 08:27:00;;;;;;;4.70;1.10;;;;;;;21.71;56.42;100915.48;107706;1273;22619;-77
2022/07/29 08:29:27;;;;;;;5.40;1.50;;;;;;;21.87;56.11;100909.40;107957;1273;22546;-76
2022/07/29 08:31:54;;;;;;;3.90;1.30;;;;;;;22.00;55.78;100906.94;108042;1273;22852;-78
2022/07/29 08:34:22;;;;;;;1.40;1.10;;;;;;;22.15;55.03;100907.99;107659;1272;24375;-76
2022/07/29 08:36:55;;;;;;;4.60;1.20;;;;;;;22.31;54.88;100909.94;108536;1274;22890;-77
2022/07/29 08:39:23;;;;;;;8.30;2.10;;;;;;;22.46;54.51;100910.80;108275;1273;22586;-77
2022/07/29 08:41:51;;;;;;;2.90;1.20;;;;;;;22.60;54.18;100909.40;106985;1274;22798;-76
2022/07/29 08:44:23;;;;;;;4.70;1.00;;;;;;;22.78;53.89;100909.55;108684;1273;22733;-76
2022/07/29 08:46:56;;;;;;;4.40;1.30;;;;;;;22.96;53.48;100908.99;108159;1276;24061;-75
2022/07/29 08:49:24;;;;;;;2.50;1.10;;;;;;;23.12;52.54;100914.98;106259;1276;25942;-76
2022/07/29 08:51:53;;;;;;;5.60;1.50;;;;;;;23.31;52.41;100914.34;105962;1276;25340;-81
2022/07/29 08:54:23;;;;;;;4.70;1.30;;;;;;;23.51;52.50;100917.19;105837;1276;24011;-80
2022/07/29 08:56:51;;;;;;;1.30;1.00;;;;;;;23.73;52.06;100917.43;105810;1276;25315;-74
2022/07/29 08:59:24;;;;;;;3.20;1.40;;;;;;;23.93;51.49;100914.16;105741;1276;22525;-76
2022/07/29 09:01:53;;;;;;;6.30;1.50;;;;;;;23.94;50.64;100911.05;105683;1276;22549;-76
2022/07/29 09:04:23;;;;;;;5.90;1.30;;;;;;;24.05;50.36;100911.71;105660;1275;25348;-74
2022/07/29 09:06:54;;;;;;;6.00;1.00;;;;;;;24.15;49.66;100908.98;105839;1273;22534;-76
2022/07/29 09:09:21;;;;;;;2.80;1.00;;;;;;;24.11;49.10;100907.16;105885;1273;22524;-77
2022/07/29 09:11:48;;;;;;;6.30;1.00;;;;;;;24.18;48.29;100903.62;105916;1273;22554;-76
2022/07/29 09:14:15;;;;;;;4.50;1.00;;;;;;;24.30;48.22;100900.90;106043;1273;22594;-74
2022/07/29 09:17:02;;;;;;;3.40;1.50;;;;;;;24.42;47.76;100896.99;105961;1273;24032;-76
2022/07/29 09:19:36;;;;;;;3.00;1.20;;;;;;;24.60;47.88;100893.39;105891;1276;25253;-77
2022/07/29 09:22:06;;;;;;;2.70;1.20;;;;;;;24.79;47.30;100896.91;105933;1273;25397;-76
2022/07/29 09:24:39;;;;;;;4.10;1.10;;;;;;;24.89;46.74;100894.91;105965;1273;25253;-75
2022/07/29 09:27:11;;;;;;;5.80;1.00;;;;;;;24.94;46.06;100897.49;105523;1279;22575;-77
2022/07/29 09:29:38;;;;;;;1.70;0.90;;;;;;;24.99;45.72;100899.91;105543;1278;24243;-74
2022/07/29 09:32:09;;;;;;;4.00;1.10;;;;;;;24.93;45.33;100902.59;105541;1278;22592;-75
2022/07/29 09:34:37;;;;;;;7.40;1.20;;;;;;;24.98;45.35;100894.75;105568;1278;24300;-76
2022/07/29 09:37:04;;;;;;;4.30;1.20;;;;;;;25.16;45.45;100887.47;105665;1278;24231;-77
2022/07/29 09:39:33;;;;;;;3.60;1.30;;;;;;;25.38;45.54;100881.58;105769;1279;25614;-78
2022/07/29 09:42:05;;;;;;;6.70;2.00;;;;;;;25.61;45.06;100881.06;105698;1279;22527;-76
2022/07/29 09:44:49;;;;;;;8.80;2.20;;;;;;;25.81;44.61;100884.15;105629;1273;22535;-78
2022/07/29 09:47:18;;;;;;;2.50;1.00;;;;;;;25.90;43.93;100883.17;105893;1274;24979;-75
2022/07/29 09:49:59;;;;;;;2.00;1.00;;;;;;;25.90;43.39;100888.73;105930;1273;22843;-75
2022/07/29 09:52:28;;;;;;;4.20;1.20;;;;;;;25.90;43.04;100882.61;105845;1273;25260;-77
2022/07/29 09:55:09;;;;;;;3.10;1.00;;;;;;;25.95;42.99;100880.48;105882;1273;25317;-77
2022/07/29 09:57:45;;;;;;;4.90;1.30;;;;;;;25.92;42.69;100875.81;105759;1274;22588;-75
2022/07/29 10:00:17;;;;;;;5.40;1.20;;;;;;;25.94;42.41;100875.13;105947;1273;22543;-74
2022/07/29 10:02:46;;;;;;;4.40;1.00;;;;;;;25.90;41.94;100880.66;105863;1275;22565;-75
2022/07/29 10:05:24;;;;;;;1.40;0.90;;;;;;;25.90;41.86;100875.95;105826;1273;24314;-74
2022/07/29 10:07:57;;;;;;;4.60;1.50;;;;;;;25.91;41.86;100876.42;105907;1273;22637;-75
2022/07/29 10:10:27;;;;;;;9.70;2.20;;;;;;;25.96;42.24;100872.27;106071;1273;22712;-76
2022/07/29 10:12:59;;;;;;;7.00;1.20;;;;;;;26.01;41.93;100865.15;105807;1273;25393;-76
2022/07/29 10:15:40;;;;;;;2.90;1.20;;;;;;;25.92;41.82;100865.00;105697;1276;24310;-75
2022/07/29 10:18:09;;;;;;;3.50;0.90;;;;;;;25.88;41.88;100860.80;105759;1276;22890;-77
2022/07/29 10:20:36;;;;;;;2.10;1.00;;;;;;;25.86;42.05;100858.02;105931;1273;22719;-76
2022/07/29 10:23:04;;;;;;;5.10;1.60;;;;;;;25.84;42.20;100858.45;105933;1273;25303;-75
2022/07/29 10:25:31;;;;;;;2.60;0.80;;;;;;;25.84;42.40;100863.32;105831;1276;22564;-75
2022/07/29 10:27:58;;;;;;;3.10;1.20;;;;;;;25.90;42.02;100859.55;105897;1274;24344;-75
2022/07/29 10:30:26;;;;;;;12.70;1.60;;;;;;;25.99;41.63;100858.60;105951;1273;22556;-76
2022/07/29 10:32:53;;;;;;;5.90;1.60;;;;;;;26.11;41.48;100854.38;105814;1276;24445;-77
2022/07/29 10:35:33;;;;;;;12.60;1.90;;;;;;;26.23;41.02;100853.36;105898;1273;22730;-77
2022/07/29 10:38:18;;;;;;;4.70;1.20;;;;;;;26.38;41.09;100854.33;105967;1273;24317;-74
2022/07/29 10:43:40;;;;;;;6.70;1.70;;;;;;;26.62;40.10;100848.96;105950;1273;24334;-77
2022/07/29 10:46:08;;;;;;;15.60;1.30;;;;;;;26.73;39.89;100848.02;105917;1273;22774;-76
2022/07/29 10:49:11;;;;;;;8.40;1.30;;;;;;;26.80;39.64;100850.55;105872;1273;22747;-76
2022/07/29 10:51:51;;;;;;;5.30;1.30;;;;;;;26.72;39.51;100849.73;105897;1273;27124;-77
2022/07/29 10:54:39;;;;;;;6.60;2.10;;;;;;;26.72;39.02;100849.35;106093;1274;25259;-79
2022/07/29 10:57:11;;;;;;;16.50;2.30;;;;;;;26.95;39.04;100843.60;105892;1273;26744;-77
2022/07/29 10:59:39;;;;;;;9.50;2.90;;;;;;;27.08;38.44;100842.65;105973;1273;25238;-80
2022/07/29 11:02:39;;;;;;;8.30;1.90;;;;;;;27.02;38.50;100842.05;105907;1273;22526;-78
2022/07/29 11:05:15;;;;;;;5.90;1.60;;;;;;;26.95;38.59;100841.95;106063;1273;24050;-77
2022/07/29 11:08:13;;;;;;;5.00;1.20;;;;;;;26.94;38.42;100838.21;105836;1274;22548;-81
2022/07/29 11:11:18;;;;;;;12.20;3.10;;;;;;;27.08;38.55;100831.98;105484;1278;24276;-77
2022/07/29 11:13:54;;;;;;;6.80;2.30;;;;;;;27.28;38.47;100829.02;105421;1279;23167;-76
2022/07/29 11:16:23;;;;;;;6.00;1.20;;;;;;;27.35;37.95;100832.98;105508;1279;25269;-76
2022/07/29 11:19:13;;;;;;;7.60;1.60;;;;;;;27.25;37.67;100832.77;105308;1281;25990;-78
2022/07/29 11:21:42;;;;;;;4.50;1.40;;;;;;;27.14;37.38;100829.08;105889;1279;22962;-81
2022/07/29 11:24:30;;;;;;;3.90;0.90;;;;;;;27.07;37.10;100823.41;105520;1279;24331;-79
2022/07/29 11:27:22;;;;;;;2.40;1.30;;;;;;;26.99;37.43;100824.66;105428;1279;25882;-80
2022/07/29 11:30:01;;;;;;;;;;;;;;;26.96;37.45;100819.48;105957;1274;25258;-77
2022/07/29 11:32:38;;;;;;;3.20;0.80;;;;;;;26.96;37.74;100821.33;106084;1273;22551;-78
2022/07/29 11:35:21;;;;;;;2.40;1.00;;;;;;;27.04;37.74;100822.36;105627;1277;22555;-76
2022/07/29 11:38:25;;;;;;;1.90;0.80;;;;;;;27.13;37.45;100817.02;105574;1279;25305;-76
2022/07/29 11:41:20;;;;;;;2.40;0.80;;;;;;;27.31;37.10;100821.16;105667;1278;25496;-76
2022/07/29 11:43:52;;;;;;;3.10;1.00;;;;;;;27.44;36.79;100818.77;105558;1279;26543;-75
2022/07/29 11:46:46;;;;;;;6.80;1.10;;;;;;;27.50;36.74;100813.59;105609;1278;22544;-80